createdAt,value
2018-03-07T00:02:11.786Z,41.55
2018-03-07T00:04:39.303Z,42.90
2018-03-07T00:07:06.999Z,45.75
2018-03-07T00:09:34.510Z,36.80
2018-03-07T00:12:02.027Z,39.13
2018-03-07T00:14:29.570Z,42.10
2018-03-07T00:16:57.086Z,43.78
2018-03-07T00:19:24.928Z,41.55
2018-03-07T00:21:52.443Z,45.78
2018-03-07T00:24:19.987Z,43.90
2018-03-07T00:26:47.502Z,44.58
2018-03-07T00:29:15.230Z,43.53
2018-03-07T00:31:42.749Z,46.78
2018-03-07T00:34:10.269Z,42.83
2018-03-07T00:36:37.802Z,35.80
2018-03-07T00:39:05.323Z,38.97
2018-03-07T00:41:33.125Z,42.38
2018-03-07T00:44:00.643Z,34.08
2018-03-07T00:46:28.162Z,37.75
2018-03-07T00:48:55.710Z,32.15
2018-03-07T00:51:23.225Z,35.00
2018-03-07T00:53:50.796Z,31.75
2018-03-07T00:56:18.318Z,35.55
2018-03-07T00:58:45.846Z,29.90
2018-03-07T01:01:13.393Z,36.55
2018-03-07T01:03:40.905Z,26.83
2018-03-07T01:06:08.475Z,32.22
2018-03-07T01:08:35.993Z,31.25
2018-03-07T01:11:03.511Z,25.25
2018-03-07T01:13:31.090Z,24.25
2018-03-07T01:15:58.598Z,28.58
2018-03-07T01:18:26.305Z,23.35
2018-03-07T01:20:53.815Z,21.98
2018-03-07T01:23:21.331Z,20.17
2018-03-07T01:25:48.878Z,26.33
2018-03-07T01:28:16.460Z,26.08
2018-03-07T01:30:44.022Z,26.85
2018-03-07T01:33:11.538Z,23.85
2018-03-07T01:35:39.049Z,23.20
2018-03-07T01:38:06.585Z,26.17
2018-03-07T01:40:34.094Z,20.85
2018-03-07T01:43:01.659Z,25.12
2018-03-07T01:45:29.181Z,23.12
2018-03-07T01:47:56.703Z,35.03
2018-03-07T01:50:24.249Z,28.52
2018-03-07T01:52:51.764Z,29.30
2018-03-07T01:55:19.334Z,24.70
2018-03-07T01:57:46.866Z,29.42
2018-03-07T02:00:14.374Z,23.50
2018-03-07T02:02:41.922Z,24.45
2018-03-07T02:05:09.436Z,25.40
2018-03-07T02:07:36.987Z,28.80
2018-03-07T02:10:04.506Z,25.67
2018-03-07T02:12:32.027Z,25.58
2018-03-07T02:14:59.571Z,24.48
2018-03-07T02:17:27.096Z,29.45
2018-03-07T02:19:54.872Z,29.37
2018-03-07T02:22:22.393Z,22.35
2018-03-07T02:24:49.915Z,19.40
2018-03-07T02:27:17.463Z,23.67
2018-03-07T02:29:44.986Z,28.52
2018-03-07T02:32:12.641Z,22.40
2018-03-07T02:34:40.166Z,24.10
2018-03-07T02:37:07.681Z,22.17
2018-03-07T02:39:35.244Z,23.85
2018-03-07T02:42:02.770Z,23.83
2018-03-07T02:44:30.417Z,21.98
2018-03-07T02:46:57.935Z,21.60
2018-03-07T02:49:25.493Z,21.90
2018-03-07T02:51:53.021Z,16.17
2018-03-07T02:54:20.538Z,23.55
2018-03-07T02:56:48.462Z,24.30
2018-03-07T02:59:15.974Z,28.83
2018-03-07T03:01:43.491Z,22.80
2018-03-07T03:04:11.066Z,20.70
2018-03-07T03:06:38.580Z,25.15
2018-03-07T03:09:06.373Z,18.73
2018-03-07T03:11:33.938Z,22.00
2018-03-07T03:14:01.554Z,25.98
2018-03-07T03:16:29.095Z,23.15
2018-03-07T03:18:56.605Z,22.25
2018-03-07T03:21:24.574Z,23.30
2018-03-07T03:23:52.094Z,25.02
2018-03-07T03:26:19.622Z,24.30
2018-03-07T03:28:47.166Z,23.25
2018-03-07T03:31:14.677Z,26.02
2018-03-07T03:33:42.393Z,30.02
2018-03-07T03:36:09.911Z,18.77
2018-03-07T03:38:37.430Z,26.27
2018-03-07T03:41:04.971Z,20.20
2018-03-07T03:43:32.491Z,24.55
2018-03-07T03:46:00.044Z,26.45
2018-03-07T03:48:27.566Z,31.20
2018-03-07T03:50:55.095Z,29.45
2018-03-07T03:53:22.634Z,21.42
2018-03-07T03:55:50.162Z,23.05
2018-03-07T03:58:17.862Z,25.67
2018-03-07T04:00:45.370Z,25.95
2018-03-07T04:03:12.894Z,21.33
2018-03-07T04:05:40.464Z,20.98
2018-03-07T04:08:08.343Z,22.08
2018-03-07T04:10:36.174Z,19.98
2018-03-07T04:13:03.686Z,19.87
2018-03-07T04:15:31.268Z,21.35
2018-03-07T04:17:58.805Z,23.65
2018-03-07T04:20:26.331Z,25.55
2018-03-07T04:22:53.884Z,22.10
2018-03-07T04:25:21.405Z,20.62
2018-03-07T04:27:48.935Z,24.87
2018-03-07T04:30:16.478Z,19.87
2018-03-07T04:32:44.020Z,18.90
2018-03-07T04:35:11.571Z,22.60
2018-03-07T04:37:39.096Z,20.10
2018-03-07T04:40:06.617Z,25.67
2018-03-07T04:42:34.153Z,19.27
2018-03-07T04:45:01.682Z,17.15
2018-03-07T04:47:29.246Z,21.17
2018-03-07T04:49:56.760Z,19.87
2018-03-07T04:52:24.271Z,20.27
2018-03-07T04:54:51.848Z,21.25
2018-03-07T04:57:20.379Z,18.37
2018-03-07T04:59:47.927Z,18.45
2018-03-07T05:02:15.444Z,20.37
2018-03-07T05:04:42.955Z,22.52
2018-03-07T05:07:10.505Z,18.23
2018-03-07T05:09:38.232Z,21.83
2018-03-07T05:12:06.002Z,16.02
2018-03-07T05:14:33.551Z,22.35
2018-03-07T05:17:01.069Z,19.30
2018-03-07T05:19:28.630Z,18.62
2018-03-07T05:21:56.154Z,19.25
2018-03-07T05:24:23.920Z,27.90
2018-03-07T05:26:51.415Z,14.13
2018-03-07T05:29:18.935Z,17.90
2018-03-07T05:31:46.479Z,15.63
2018-03-07T05:34:14.000Z,18.33
2018-03-07T05:36:41.877Z,19.05
2018-03-07T05:39:09.387Z,15.10
2018-03-07T05:41:36.909Z,15.05
2018-03-07T05:44:04.450Z,15.90
2018-03-07T05:46:31.962Z,14.85
2018-03-07T05:48:59.497Z,14.55
2018-03-07T05:51:27.047Z,13.48
2018-03-07T05:53:54.573Z,13.57
2018-03-07T05:56:22.134Z,12.90
2018-03-07T05:58:49.653Z,14.45
2018-03-07T06:01:17.198Z,15.30
2018-03-07T06:03:44.709Z,14.25
2018-03-07T06:06:12.223Z,16.85
2018-03-07T06:08:39.857Z,17.95
2018-03-07T06:11:07.366Z,21.92
2018-03-07T06:13:34.922Z,22.95
2018-03-07T06:16:02.439Z,22.80
2018-03-07T06:18:29.951Z,23.52
2018-03-07T06:20:57.492Z,20.27
2018-03-07T06:23:25.014Z,16.23
2018-03-07T06:25:52.647Z,17.83
2018-03-07T06:28:20.154Z,17.75
2018-03-07T06:30:47.854Z,19.95
2018-03-07T06:33:15.454Z,16.58
2018-03-07T06:35:44.546Z,21.92
2018-03-07T06:38:12.087Z,26.15
2018-03-07T06:40:39.605Z,20.30
2018-03-07T06:43:07.114Z,17.80
2018-03-07T06:45:34.786Z,26.33
2018-03-07T06:48:03.208Z,19.42
2018-03-07T06:50:31.576Z,17.08
2018-03-07T06:52:59.110Z,18.35
2018-03-07T06:55:26.627Z,20.92
2018-03-07T06:57:54.210Z,27.90
2018-03-07T07:00:21.726Z,15.10
2018-03-07T07:02:49.518Z,20.55
2018-03-07T07:05:17.027Z,15.07
2018-03-07T07:07:44.546Z,18.60
2018-03-07T07:10:12.090Z,23.38
2018-03-07T07:12:39.602Z,13.68
2018-03-07T07:15:07.307Z,17.00
2018-03-07T07:17:34.823Z,17.00
2018-03-07T07:20:02.344Z,13.57
2018-03-07T07:22:29.906Z,16.00
2018-03-07T07:24:57.422Z,15.73
2018-03-07T07:27:25.162Z,14.23
2018-03-07T07:29:52.651Z,13.82
2018-03-07T07:32:20.186Z,12.57
2018-03-07T07:34:47.725Z,12.82
2018-03-07T07:37:15.234Z,8.15
2018-03-07T07:39:42.912Z,14.25
2018-03-07T07:42:10.794Z,16.60
2018-03-07T07:44:39.214Z,10.60
2018-03-07T07:47:07.036Z,13.43
2018-03-07T07:49:35.573Z,13.52
2018-03-07T07:52:04.191Z,12.13
2018-03-07T07:54:31.861Z,11.57
2018-03-07T07:56:59.457Z,9.70
2018-03-07T07:59:27.294Z,9.95
2018-03-07T08:01:55.110Z,10.65
2018-03-07T08:04:23.538Z,9.90
2018-03-07T08:06:51.134Z,10.45
2018-03-07T08:09:18.949Z,11.10
2018-03-07T08:11:46.770Z,9.45
2018-03-07T08:14:14.802Z,10.25
2018-03-07T08:16:42.401Z,10.00
2018-03-07T08:19:09.929Z,11.35
2018-03-07T08:21:37.555Z,8.27
2018-03-07T08:24:05.971Z,9.45
2018-03-07T08:26:34.133Z,9.43
2018-03-07T08:29:02.530Z,8.18
2018-03-07T08:31:30.069Z,7.12
2018-03-07T08:33:57.579Z,8.73
2018-03-07T08:36:25.114Z,6.95
2018-03-07T08:38:52.629Z,8.18
2018-03-07T08:41:20.381Z,6.37
2018-03-07T08:43:47.906Z,6.03
2018-03-07T08:46:15.419Z,4.30
2018-03-07T08:48:42.951Z,4.37
2018-03-07T08:51:10.459Z,1.80
2018-03-07T08:53:38.015Z,3.25
2018-03-07T08:56:05.523Z,4.35
2018-03-07T08:58:33.038Z,1.62
2018-03-07T09:01:00.591Z,1.90
2018-03-07T09:03:28.107Z,1.50
2018-03-07T09:05:55.671Z,1.40
2018-03-07T09:08:23.194Z,1.85
2018-03-07T09:10:50.742Z,1.60
2018-03-07T09:13:18.287Z,1.70
2018-03-07T09:15:45.811Z,1.50
2018-03-07T09:18:13.410Z,3.17
2018-03-07T09:20:40.924Z,1.70
2018-03-07T09:23:08.445Z,3.78
2018-03-07T09:25:35.990Z,2.47
2018-03-07T09:28:03.511Z,1.67
2018-03-07T09:30:31.466Z,1.45
2018-03-07T09:32:59.973Z,3.83
2018-03-07T09:35:27.541Z,4.15
2018-03-07T09:37:55.102Z,3.25
2018-03-07T09:40:22.611Z,3.28
2018-03-07T09:42:50.394Z,18.75
2018-03-07T09:45:17.922Z,1.65
2018-03-07T09:47:45.430Z,2.47
2018-03-07T09:50:12.975Z,7.87
2018-03-07T09:52:40.550Z,1.70
2018-03-07T09:55:08.110Z,7.62
2018-03-07T09:57:35.623Z,1.80
2018-03-07T10:00:03.134Z,2.00
2018-03-07T10:02:30.675Z,1.95
2018-03-07T10:04:58.191Z,1.60
2018-03-07T10:07:25.886Z,1.98
2018-03-07T10:09:53.398Z,1.20
2018-03-07T10:12:20.917Z,1.52
2018-03-07T10:14:48.482Z,1.87
2018-03-07T10:17:16.010Z,3.78
2018-03-07T10:19:43.986Z,2.13
2018-03-07T10:22:11.494Z,2.07
2018-03-07T10:24:39.006Z,2.30
2018-03-07T10:27:06.546Z,1.67
2018-03-07T10:29:34.054Z,3.70
2018-03-07T10:32:01.617Z,2.33
2018-03-07T10:34:29.143Z,1.42
2018-03-07T10:36:56.665Z,1.00
2018-03-07T10:39:24.214Z,2.22
2018-03-07T10:41:51.755Z,1.20
2018-03-07T10:44:19.322Z,1.25
2018-03-07T10:46:46.845Z,1.95
2018-03-07T10:49:14.359Z,1.20
2018-03-07T10:51:41.898Z,4.15
2018-03-07T10:54:09.434Z,1.02
2018-03-07T10:56:37.174Z,1.15
2018-03-07T10:59:04.697Z,1.00
2018-03-07T11:01:32.219Z,1.12
2018-03-07T11:03:59.775Z,1.85
2018-03-07T11:06:27.292Z,3.12
2018-03-07T11:08:54.839Z,0.93
2018-03-07T11:11:22.362Z,1.98
2018-03-07T11:13:49.945Z,1.65
2018-03-07T11:16:17.467Z,4.07
2018-03-07T11:18:44.989Z,1.00
2018-03-07T11:21:12.554Z,1.58
2018-03-07T11:23:41.063Z,1.62
2018-03-07T11:26:08.587Z,2.10
2018-03-07T11:28:36.212Z,1.35
2018-03-07T11:31:03.722Z,1.23
2018-03-07T11:33:31.308Z,3.75
2018-03-07T11:35:58.809Z,5.62
2018-03-07T11:38:26.319Z,2.17
2018-03-07T11:40:53.861Z,1.30
2018-03-07T11:43:21.369Z,1.80
2018-03-07T11:45:48.934Z,1.23
2018-03-07T11:48:16.450Z,1.87
2018-03-07T11:50:43.962Z,1.60
2018-03-07T11:53:11.569Z,1.80
2018-03-07T11:55:39.077Z,1.50
2018-03-07T11:58:06.788Z,1.48
2018-03-07T12:00:34.302Z,1.37
2018-03-07T12:03:01.823Z,3.70
2018-03-07T12:05:29.367Z,1.58
2018-03-07T12:07:56.878Z,4.72
2018-03-07T12:10:25.919Z,2.17
2018-03-07T12:12:53.430Z,5.53
2018-03-07T12:15:20.937Z,1.77
2018-03-07T12:17:48.474Z,1.67
2018-03-07T12:20:15.990Z,3.70
2018-03-07T12:22:43.534Z,3.53
2018-03-07T12:25:11.083Z,1.93
2018-03-07T12:27:38.602Z,2.30
2018-03-07T12:30:06.155Z,2.20
2018-03-07T12:32:34.603Z,2.53
2018-03-07T12:35:02.273Z,4.07
2018-03-07T12:37:29.785Z,1.40
2018-03-07T12:39:57.314Z,1.60
2018-03-07T12:42:24.887Z,2.03
2018-03-07T12:44:52.402Z,3.17
2018-03-07T12:47:19.955Z,3.80
2018-03-07T12:49:47.467Z,1.85
2018-03-07T12:55:05.466Z,1.23
2018-03-07T12:57:33.161Z,3.90
2018-03-07T13:00:00.963Z,2.40
2018-03-07T13:02:28.500Z,1.00
2018-03-07T13:04:56.074Z,3.17
2018-03-07T13:07:24.460Z,0.98
2018-03-07T13:09:51.983Z,2.80
2018-03-07T13:12:20.091Z,1.80
2018-03-07T13:14:47.616Z,5.25
2018-03-07T13:17:15.130Z,2.15
2018-03-07T13:19:42.872Z,2.65
2018-03-07T13:22:10.424Z,4.62
2018-03-07T13:24:38.189Z,2.78
2018-03-07T13:27:05.989Z,6.47
2018-03-07T13:29:33.826Z,3.65
2018-03-07T13:32:01.589Z,1.95
2018-03-07T13:34:29.250Z,1.70
2018-03-07T13:36:56.829Z,1.90
2018-03-07T13:39:24.487Z,1.98
2018-03-07T13:41:52.087Z,4.07
2018-03-07T13:44:19.886Z,1.10
2018-03-07T13:46:47.662Z,2.37
2018-03-07T13:49:15.788Z,3.40
2018-03-07T13:51:43.600Z,7.00
2018-03-07T13:54:12.392Z,5.22
2018-03-07T13:56:39.967Z,1.73
2018-03-07T13:59:07.594Z,1.65
2018-03-07T14:01:35.577Z,6.35
2018-03-07T14:04:03.444Z,1.00
2018-03-07T14:06:31.018Z,1.30
2018-03-07T14:08:58.870Z,2.42
2018-03-07T14:11:26.403Z,2.97
2018-03-07T14:13:54.079Z,2.53
2018-03-07T14:16:21.591Z,1.40
2018-03-07T14:18:49.192Z,2.53
2018-03-07T14:21:16.848Z,2.00
2018-03-07T14:23:44.400Z,2.40
2018-03-07T14:26:11.961Z,2.97
2018-03-07T14:28:39.630Z,2.72
2018-03-07T14:31:07.262Z,3.03
2018-03-07T14:33:34.897Z,3.85
2018-03-07T14:36:02.739Z,1.55
2018-03-07T14:38:30.490Z,4.03
2018-03-07T14:40:58.574Z,1.80
2018-03-07T14:43:26.748Z,4.40
2018-03-07T14:45:54.999Z,2.03
2018-03-07T14:48:22.576Z,6.22
2018-03-07T14:50:50.379Z,8.15
2018-03-07T14:53:18.070Z,1.90
2018-03-07T14:55:45.858Z,2.62
2018-03-07T14:58:13.537Z,2.53
2018-03-07T15:00:41.096Z,5.35
2018-03-07T15:03:09.147Z,2.55
2018-03-07T15:05:36.884Z,2.17
2018-03-07T15:08:04.501Z,1.83
2018-03-07T15:10:32.207Z,2.72
2018-03-07T15:12:59.955Z,1.87
2018-03-07T15:15:27.851Z,1.73
2018-03-07T15:17:55.547Z,1.35
2018-03-07T15:20:23.401Z,4.68
2018-03-07T15:22:51.279Z,4.20
2018-03-07T15:25:19.250Z,4.90
2018-03-07T15:27:47.217Z,4.35
2018-03-07T15:30:14.980Z,2.65
2018-03-07T15:32:42.839Z,3.35
2018-03-07T15:35:10.615Z,5.12
2018-03-07T15:37:38.686Z,6.82
2018-03-07T15:40:06.552Z,6.78
2018-03-07T15:42:34.417Z,1.45
2018-03-07T15:45:02.791Z,5.37
2018-03-07T15:47:30.619Z,1.33
2018-03-07T15:49:58.531Z,1.73
2018-03-07T15:52:26.394Z,2.05
2018-03-07T15:54:56.530Z,9.48
2018-03-07T15:57:24.089Z,2.40
2018-03-07T15:59:52.144Z,1.33
2018-03-07T16:02:20.011Z,2.87
2018-03-07T16:04:47.894Z,1.85
2018-03-07T16:07:15.564Z,1.98
2018-03-07T16:09:44.020Z,4.35
2018-03-07T16:12:12.091Z,2.67
2018-03-07T16:14:39.856Z,32.65
2018-03-07T16:17:08.143Z,4.15
2018-03-07T16:19:36.061Z,1.20
2018-03-07T16:22:03.966Z,1.95
2018-03-07T16:24:31.934Z,1.10
2018-03-07T16:26:59.802Z,1.20
2018-03-07T16:29:27.771Z,1.23
2018-03-07T16:31:55.520Z,1.45
2018-03-07T16:34:23.402Z,1.90
2018-03-07T16:36:51.882Z,5.20
2018-03-07T16:39:19.910Z,4.45
2018-03-07T16:41:48.639Z,1.27
2018-03-07T16:44:16.506Z,1.50
2018-03-07T16:46:44.496Z,3.72
2018-03-07T16:49:12.460Z,2.05
2018-03-07T16:51:40.355Z,1.20
2018-03-07T16:54:08.278Z,9.75
2018-03-07T16:56:36.113Z,1.58
2018-03-07T16:59:04.501Z,1.90
2018-03-07T17:01:32.392Z,1.08
2018-03-07T17:04:00.260Z,2.55
2018-03-07T17:06:28.532Z,3.00
2018-03-07T17:08:56.593Z,1.92
2018-03-07T17:11:25.394Z,1.90
2018-03-07T17:13:53.356Z,1.42
2018-03-07T17:16:21.331Z,3.50
2018-03-07T17:18:49.504Z,2.08
2018-03-07T17:21:19.336Z,2.85
2018-03-07T17:23:47.390Z,3.37
2018-03-07T17:26:15.561Z,3.45
2018-03-07T17:28:43.969Z,1.55
2018-03-07T17:31:11.908Z,3.17
2018-03-07T17:33:39.780Z,1.65
2018-03-07T17:36:07.643Z,3.35
2018-03-07T17:38:35.404Z,2.05
2018-03-07T17:41:03.272Z,6.68
2018-03-07T17:43:31.241Z,5.80
2018-03-07T17:45:59.108Z,2.75
2018-03-07T17:48:26.686Z,4.37
2018-03-07T17:50:54.434Z,3.60
2018-03-07T17:53:22.146Z,3.45
2018-03-07T17:55:50.046Z,2.17
2018-03-07T17:58:17.722Z,7.95
2018-03-07T18:00:45.486Z,3.53
2018-03-07T18:03:13.357Z,1.85
2018-03-07T18:05:41.085Z,2.67
2018-03-07T18:08:09.211Z,4.22
2018-03-07T18:10:37.056Z,3.37
2018-03-07T18:13:05.024Z,1.90
2018-03-07T18:15:32.889Z,3.67
2018-03-07T18:18:00.675Z,1.70
2018-03-07T18:20:28.727Z,3.78
2018-03-07T18:22:56.593Z,2.30
2018-03-07T18:25:24.255Z,7.25
2018-03-07T18:27:52.120Z,4.45
2018-03-07T18:30:20.090Z,4.72
2018-03-07T18:32:48.316Z,3.85
2018-03-07T18:35:16.016Z,2.17
2018-03-07T18:37:43.895Z,4.18
2018-03-07T18:40:11.965Z,1.40
2018-03-07T18:42:39.934Z,2.22
2018-03-07T18:45:08.109Z,2.90
2018-03-07T18:47:37.206Z,3.85
2018-03-07T18:50:05.790Z,3.05
2018-03-07T18:52:33.919Z,1.20
2018-03-07T18:55:04.503Z,3.72
2018-03-07T18:57:33.381Z,1.37
2018-03-07T19:00:01.258Z,2.25
2018-03-07T19:02:29.935Z,1.90
2018-03-07T19:04:57.901Z,1.87
2018-03-07T19:07:25.869Z,2.12
2018-03-07T19:09:54.146Z,3.05
2018-03-07T19:12:21.978Z,1.20
2018-03-07T19:14:49.980Z,2.65
2018-03-07T19:17:17.954Z,2.17
2018-03-07T19:19:46.950Z,2.30
2018-03-07T19:22:15.295Z,2.17
2018-03-07T19:24:44.835Z,2.10
2018-03-07T19:27:12.897Z,1.50
2018-03-07T19:29:40.866Z,1.95
2018-03-07T19:32:08.938Z,2.72
2018-03-07T19:34:37.526Z,4.10
2018-03-07T19:37:05.388Z,1.85
2018-03-07T19:39:33.766Z,1.92
2018-03-07T19:42:01.735Z,2.83
2018-03-07T19:44:30.069Z,1.85
2018-03-07T19:46:57.979Z,1.45
2018-03-07T19:49:25.949Z,1.35
2018-03-07T19:51:53.815Z,3.47
2018-03-07T19:54:22.159Z,2.30
2018-03-07T19:56:50.573Z,1.40
2018-03-07T19:59:18.645Z,1.75
2018-03-07T20:01:47.534Z,2.03
2018-03-07T20:04:15.503Z,1.87
2018-03-07T20:06:43.985Z,3.17
2018-03-07T20:09:11.953Z,2.67
2018-03-07T20:11:39.818Z,4.55
2018-03-07T20:14:08.198Z,4.72
2018-03-07T20:16:39.750Z,2.33
2018-03-07T20:19:07.720Z,3.25
2018-03-07T20:21:36.449Z,4.85
2018-03-07T20:24:05.194Z,2.08
2018-03-07T20:26:34.187Z,2.33
2018-03-07T20:29:03.077Z,3.17
2018-03-07T20:31:31.361Z,2.40
2018-03-07T20:34:01.006Z,2.42
2018-03-07T20:36:29.032Z,3.60
2018-03-07T20:38:56.897Z,2.87
2018-03-07T20:41:24.867Z,2.33
2018-03-07T20:43:53.450Z,3.42
2018-03-07T20:46:21.727Z,4.30
2018-03-07T20:48:49.803Z,13.75
2018-03-07T20:51:17.767Z,5.30
2018-03-07T20:53:48.214Z,3.83
2018-03-07T20:56:16.471Z,3.40
2018-03-07T20:58:45.718Z,3.22
2018-03-07T21:01:13.635Z,3.12
2018-03-07T21:03:42.016Z,3.35
2018-03-07T21:06:10.003Z,4.93
2018-03-07T21:08:38.788Z,3.55
2018-03-07T21:11:06.951Z,4.68
2018-03-07T21:13:35.017Z,9.50
2018-03-07T21:16:02.985Z,2.05
2018-03-07T21:18:30.852Z,2.70
2018-03-07T21:20:59.580Z,2.08
2018-03-07T21:23:28.244Z,2.97
2018-03-07T21:25:56.912Z,3.30
2018-03-07T21:28:24.880Z,2.85
2018-03-07T21:30:52.747Z,2.90
2018-03-07T21:33:22.348Z,2.72
2018-03-07T21:35:50.443Z,3.22
2018-03-07T21:38:18.393Z,4.25
2018-03-07T21:40:46.395Z,5.22
2018-03-07T21:43:14.945Z,1.73
2018-03-07T21:45:42.913Z,3.37
2018-03-07T21:48:11.292Z,2.08
2018-03-07T21:50:39.159Z,2.90
2018-03-07T21:53:07.053Z,2.55
2018-03-07T21:55:34.994Z,9.57
2018-03-07T21:58:03.372Z,2.90
2018-03-07T22:00:31.241Z,3.95
2018-03-07T22:02:59.019Z,4.12
2018-03-07T22:05:26.972Z,4.47
2018-03-07T22:07:54.735Z,4.10
2018-03-07T22:10:22.635Z,3.00
2018-03-07T22:12:50.435Z,2.30
2018-03-07T22:15:18.560Z,2.72
2018-03-07T22:17:46.473Z,3.65
2018-03-07T22:20:14.169Z,5.53
2018-03-07T22:22:42.076Z,4.22
2018-03-07T22:25:09.630Z,6.37
2018-03-07T22:27:37.157Z,6.15
2018-03-07T22:30:04.704Z,8.20
2018-03-07T22:32:32.215Z,4.62
2018-03-07T22:34:59.767Z,9.75
2018-03-07T22:37:27.280Z,4.60
2018-03-07T22:39:54.928Z,3.90
2018-03-07T22:42:22.471Z,9.52
2018-03-07T22:44:49.981Z,3.15
2018-03-07T22:47:17.767Z,3.53
2018-03-07T22:49:45.277Z,5.53
2018-03-07T22:52:12.782Z,5.50
2018-03-07T22:54:40.330Z,3.50
2018-03-07T22:57:07.870Z,5.55
2018-03-07T22:59:35.433Z,3.80
2018-03-07T23:02:02.939Z,4.20
2018-03-07T23:04:30.447Z,4.53
2018-03-07T23:06:57.983Z,4.32
2018-03-07T23:09:26.484Z,5.68
2018-03-07T23:11:54.433Z,7.15
2018-03-07T23:14:21.976Z,3.62
2018-03-07T23:16:49.491Z,6.72
2018-03-07T23:19:17.058Z,3.65
2018-03-07T23:21:44.566Z,7.37
2018-03-07T23:24:12.286Z,10.40
2018-03-07T23:26:39.808Z,5.45
2018-03-07T23:29:07.694Z,7.07
2018-03-07T23:31:35.242Z,5.82
2018-03-07T23:34:02.750Z,5.25
2018-03-07T23:36:30.290Z,5.80
2018-03-07T23:38:57.794Z,5.72
2018-03-07T23:41:25.400Z,4.07
2018-03-07T23:43:52.940Z,5.75
2018-03-07T23:46:20.454Z,5.03
2018-03-07T23:48:48.007Z,3.53
2018-03-07T23:51:15.518Z,3.33
2018-03-07T23:53:43.022Z,3.00
2018-03-07T23:56:10.552Z,3.12
2018-03-07T23:58:38.079Z,4.47
